Tk Rotterdam — A8RG8 — position and weather

sailwx.info

Track history (hours):
 
Tides and Currents Weather Stations Pressure Air Temp Water Temp Dewpoint Dewpoint Depression Visibility Wind Speed Wind Dir Waves Ship Positions

Tk Rotterdam

Last reported at 2016-Feb-06 16:06 UTC. Time now 2016-Feb-08 23:18 UTC.
Position N 36°39' E 000°25'.

Length 130 m; draft 7.2 m.

Type: Cargo ship. MMSI: 636014098.

Date/timePositionNaut miles runAvg speedWind from/ knotsBaromVisibWave heightAir tempDewpointWater temp
2016-Feb-06 16:06N 36°39' E 000°25'271 5.6
2016-Feb-04 15:30N 36°07' W 005°10'5 5.8
2016-Feb-04 14:33N 36°04' W 005°16'6 5.5
2016-Feb-04 13:33N 36°01' W 005°22'5 4.5
2016-Feb-04 12:33N 35°58' W 005°26'8 5.7
2016-Feb-04 11:10N 35°56' W 005°35'4 6.1
2016-Feb-04 10:29N 35°55' W 005°40'77 6.4
2016-Feb-03 22:28N 36°07' W 007°14'41 8.2
2016-Feb-03 17:33N 36°18' W 008°02'8 8.2
2016-Feb-03 16:33N 36°21' W 008°12'7 7.2
2016-Feb-03 15:33N 36°22' W 008°21'8 8.1
2016-Feb-03 14:33N 36°25' W 008°31'8 8.4
2016-Feb-03 13:33N 36°27' W 008°41'9 8.2
2016-Feb-03 12:30N 36°29' W 008°51'8 8.0
2016-Feb-03 11:33N 36°31' W 009°00'8 8.0
2016-Feb-03 10:33N 36°33' W 009°10'8 7.8
2016-Feb-03 09:33N 36°36' W 009°19'9 8.4
2016-Feb-03 08:30N 36°43' W 009°26'8 8.4
2016-Feb-03 07:33N 36°49' W 009°32'8 8.4
2016-Feb-03 06:33N 36°57' W 009°34'9 9.0
2016-Feb-03 05:30N 37°07' W 009°37'8 8.7
2016-Feb-03 04:33N 37°15' W 009°39'10 9.5
2016-Feb-03 03:33N 37°24' W 009°42'9 8.6
2016-Feb-03 02:33N 37°32' W 009°45'9 8.6
2016-Feb-03 01:32N 37°41' W 009°47'9 9.3
2016-Feb-03 00:33N 37°50' W 009°50'10 8.9
2016-Feb-02 23:28N 37°59' W 009°52'8 9.2
2016-Feb-02 22:33N 38°07' W 009°55'9 9.4
2016-Feb-02 21:33N 38°16' W 009°58'10 9.4
2016-Feb-02 20:32N 38°26' W 010°01'9 9.5
2016-Feb-02 19:33N 38°35' W 010°03'9 9.3
2016-Feb-02 18:34N 38°44' W 010°05'9 8.9
2016-Feb-02 17:33N 38°53' W 010°05'9 8.9
2016-Feb-02 16:33N 39°02' W 010°05'9 8.9
2016-Feb-02 15:33N 39°11' W 010°06'9 8.9
2016-Feb-02 14:33N 39°20' W 010°06'9 9.2
2016-Feb-02 13:33N 39°29' W 010°06'9 9.4
2016-Feb-02 12:33N 39°38' W 010°06'8 8.4
2016-Feb-02 11:33N 39°47' W 010°06'9 9.0
2016-Feb-02 10:31N 39°56' W 010°06'9 9.1
2016-Feb-02 09:33N 40°05' W 010°06'9 8.9
2016-Feb-02 08:33N 40°14' W 010°06'10 9.1
2016-Feb-02 07:30N 40°23' W 010°07'8 8.3
2016-Feb-02 06:33N 40°31' W 010°07'12 9.1
2016-Feb-02 05:11N 40°43' W 010°07'6 8.3
2016-Feb-02 04:30N 40°49' W 010°06'8 8.7
2016-Feb-02 03:33N 40°57' W 010°06'9 8.7
2016-Feb-02 02:30N 41°07' W 010°06'8 8.2
2016-Feb-02 01:32N 41°14' W 010°06'21 8.5
2016-Feb-01 23:06N 41°35' W 010°06'5 9.2
2016-Feb-01 22:32N 41°40' W 010°07'9 8.7
2016-Feb-01 21:29N 41°49' W 010°07'9 8.6
2016-Feb-01 20:23N 41°59' W 010°06'  
2016-Jan-28 00:13N 50°26' W 000°29'3 3.7
2016-Jan-27 23:23N 50°27' W 000°24'8 4.3
2016-Jan-27 21:28N 50°29' W 000°12'5 5.9
2016-Jan-27 20:33N 50°30' W 000°04'7 6.7
2016-Jan-27 19:33N 50°32' E 000°06'7 7.2
2016-Jan-27 18:33N 50°35' E 000°17'6 6.3
2016-Jan-27 17:33N 50°36' E 000°27'5 5.4
2016-Jan-27 16:33N 50°38' E 000°35'  
Track history (hours):
 
Tides and Currents Weather Stations Pressure Air Temp Water Temp Dewpoint Dewpoint Depression Visibility Wind Speed Wind Dir Waves Ship Positions

Tk Rotterdam

Last reported at 2016-Feb-06 16:06 UTC. Time now 2016-Feb-08 23:18 UTC.
Position N 36°39' E 000°25'.

Length 130 m; draft 7.2 m.

Type: Cargo ship. MMSI: 636014098.

Date/timePositionNaut miles runAvg speedWind from/ knotsBaromVisibWave heightAir tempDewpointWater temp
2016-Feb-06 16:06N 36°39' E 000°25'271 5.6
2016-Feb-04 15:30N 36°07' W 005°10'5 5.8
2016-Feb-04 14:33N 36°04' W 005°16'6 5.5
2016-Feb-04 13:33N 36°01' W 005°22'5 4.5
2016-Feb-04 12:33N 35°58' W 005°26'8 5.7
2016-Feb-04 11:10N 35°56' W 005°35'4 6.1
2016-Feb-04 10:29N 35°55' W 005°40'77 6.4
2016-Feb-03 22:28N 36°07' W 007°14'41 8.2
2016-Feb-03 17:33N 36°18' W 008°02'8 8.2
2016-Feb-03 16:33N 36°21' W 008°12'7 7.2
2016-Feb-03 15:33N 36°22' W 008°21'8 8.1
2016-Feb-03 14:33N 36°25' W 008°31'8 8.4
2016-Feb-03 13:33N 36°27' W 008°41'9 8.2
2016-Feb-03 12:30N 36°29' W 008°51'8 8.0
2016-Feb-03 11:33N 36°31' W 009°00'8 8.0
2016-Feb-03 10:33N 36°33' W 009°10'8 7.8
2016-Feb-03 09:33N 36°36' W 009°19'9 8.4
2016-Feb-03 08:30N 36°43' W 009°26'8 8.4
2016-Feb-03 07:33N 36°49' W 009°32'8 8.4
2016-Feb-03 06:33N 36°57' W 009°34'9 9.0
2016-Feb-03 05:30N 37°07' W 009°37'8 8.7
2016-Feb-03 04:33N 37°15' W 009°39'10 9.5
2016-Feb-03 03:33N 37°24' W 009°42'9 8.6
2016-Feb-03 02:33N 37°32' W 009°45'9 8.6
2016-Feb-03 01:32N 37°41' W 009°47'9 9.3
2016-Feb-03 00:33N 37°50' W 009°50'10 8.9
2016-Feb-02 23:28N 37°59' W 009°52'8 9.2
2016-Feb-02 22:33N 38°07' W 009°55'9 9.4
2016-Feb-02 21:33N 38°16' W 009°58'10 9.4
2016-Feb-02 20:32N 38°26' W 010°01'9 9.5
2016-Feb-02 19:33N 38°35' W 010°03'9 9.3
2016-Feb-02 18:34N 38°44' W 010°05'9 8.9
2016-Feb-02 17:33N 38°53' W 010°05'9 8.9
2016-Feb-02 16:33N 39°02' W 010°05'9 8.9
2016-Feb-02 15:33N 39°11' W 010°06'9 8.9
2016-Feb-02 14:33N 39°20' W 010°06'9 9.2
2016-Feb-02 13:33N 39°29' W 010°06'9 9.4
2016-Feb-02 12:33N 39°38' W 010°06'8 8.4
2016-Feb-02 11:33N 39°47' W 010°06'9 9.0
2016-Feb-02 10:31N 39°56' W 010°06'9 9.1
2016-Feb-02 09:33N 40°05' W 010°06'9 8.9
2016-Feb-02 08:33N 40°14' W 010°06'10 9.1
2016-Feb-02 07:30N 40°23' W 010°07'8 8.3
2016-Feb-02 06:33N 40°31' W 010°07'12 9.1
2016-Feb-02 05:11N 40°43' W 010°07'6 8.3
2016-Feb-02 04:30N 40°49' W 010°06'8 8.7
2016-Feb-02 03:33N 40°57' W 010°06'9 8.7
2016-Feb-02 02:30N 41°07' W 010°06'8 8.2
2016-Feb-02 01:32N 41°14' W 010°06'21 8.5
2016-Feb-01 23:06N 41°35' W 010°06'5 9.2
2016-Feb-01 22:32N 41°40' W 010°07'9 8.7
2016-Feb-01 21:29N 41°49' W 010°07'9 8.6
2016-Feb-01 20:23N 41°59' W 010°06'  
2016-Jan-28 00:13N 50°26' W 000°29'3 3.7
2016-Jan-27 23:23N 50°27' W 000°24'8 4.3
2016-Jan-27 21:28N 50°29' W 000°12'5 5.9
2016-Jan-27 20:33N 50°30' W 000°04'7 6.7
2016-Jan-27 19:33N 50°32' E 000°06'7 7.2
2016-Jan-27 18:33N 50°35' E 000°17'6 6.3
2016-Jan-27 17:33N 50°36' E 000°27'5 5.4
2016-Jan-27 16:33N 50°38' E 000°35'  

Dump ship's entire track history